KCFV

Coffeyville Municipal Airport

Coffeyville, Kansas, USA
METAR KCFV 181052Z AUTO 15005KT 10SM CLR 23/21 A3000 RMK AO2 SLP151 T02280211
Observed Flight Rules
Jun-18 @ 10:52 UTC (10 minutes ago) Visual Flight Rules
Wind Visibility Clouds
150° at 5 knots 10 miles
  • Clear skies
Temperatures Readings
Current 23°C / 73°F
Dewpoint 21°C / 70°F
Humidity 89%
Altimeter 30" Hg
Pressure 1015.1 hPa
Elevation 225
METAR KCFV 181052Z AUTO 15005KT 10SM CLR 23/21 A3000 RMK AO2 SLP151 T02280211
Observed Flight Rules
Jun-18 @ 10:52 UTC
(10 minutes ago)
VFR
Wind Visibility
150° at 5 knots 10 miles
Clouds
  • Clear skies
Temperature Dewpoint
23°C / 73°F 21°C / 70°F
Humidity Altimeter Pressure
89% 30" Hg 1015.1 hPa